EST,Max TemperatureF,Mean TemperatureF,Min TemperatureF,Max Dew PointF,MeanDew PointF,Min DewpointF,Max Humidity, Mean Humidity, Min Humidity, Max Sea Level PressureIn, Mean Sea Level PressureIn, Min Sea Level PressureIn, Max VisibilityMiles, Mean VisibilityMiles, Min VisibilityMiles, Max Wind SpeedMPH, Mean Wind SpeedMPH, Max Gust SpeedMPH,PrecipitationIn, CloudCover, Events, WindDirDegrees
2012-11-1,39,36,30,37,35,27,100,95,80,29.77,29.65,29.59,10,8,3,25,13,32,0.00,8,,315
2012-11-2,37,34,30,28,27,25,93,77,65,30.11,29.94,29.78,10,10,8,20,12,26,0.00,8,,347
2012-11-3,35,32,28,28,26,25,93,83,70,30.21,30.18,30.11,10,10,10,14,8,17,0.00,6,,350
2012-11-4,33,30,26,28,25,21,93,88,75,30.24,30.21,30.18,10,10,10,14,6,16,0.00,6,,6
2012-11-5,32,26,21,23,20,19,93,75,64,30.29,30.23,30.14,10,10,10,9,4,,0.00,7,,74
2012-11-6,37,32,28,28,26,23,86,75,65,30.14,30.03,29.97,10,10,10,14,5,,0.00,8,,125
2012-11-7,39,36,33,34,32,28,93,85,75,30.15,30.11,30.02,10,10,10,7,3,,0.00,8,,110
2012-11-8,44,40,35,39,36,32,100,89,76,30.15,30.09,30.00,10,10,5,9,4,,0.00,8,,170
2012-11-9,46,42,37,41,39,36,100,88,71,30.17,30.09,30.01,10,9,7,10,5,,0.00,7,,280
2012-11-10,46,40,33,46,35,30,100,93,81,30.21,30.09,29.90,10,8,1,25,14,32,0.00,8,,93
2012-11-11,62,54,46,55,49,45,100,85,63,29.91,29.80,29.67,10,7,2,23,12,30,0.00,5,,136
2012-11-12,51,38,24,52,34,18,100,91,74,30.04,29.83,29.70,10,9,2,20,8,28,0.01,7,,239
2012-11-13,39,31,23,30,24,18,93,80,52,30.43,30.28,30.05,10,10,10,17,8,22,0.00,4,,230
2012-11-14,39,36,32,34,30,27,87,80,70,30.47,30.42,30.35,10,10,10,13,8,,0.00,7,,161
2012-11-15,46,38,30,39,33,28,100,82,62,30.35,30.28,30.22,10,10,5,13,8,21,0.00,4,,180
2012-11-16,37,32,26,37,24,12,100,75,36,30.50,30.44,30.30,10,10,8,9,5,,0.00,0,,319
2012-11-17,41,32,24,37,32,21,100,92,74,30.53,30.50,30.49,10,6,0,12,4,,0.00,5,,137
2012-11-18,51,42,32,39,36,32,100,87,50,30.49,30.44,30.37,10,5,0,13,8,,0.00,1,,134
2012-11-19,48,42,35,43,39,34,100,91,66,30.36,30.25,30.12,10,7,2,12,8,,0.00,4,,126
2012-11-20,51,43,35,45,41,34,100,91,71,30.14,30.10,30.07,10,9,4,8,4,,0.00,6,,163
2012-11-21,51,46,42,45,43,41,100,92,71,30.15,30.07,29.95,10,5,2,14,4,17,0.00,5,,163
2012-11-22,66,54,42,46,40,34,100,65,30,29.95,29.75,29.52,10,10,6,23,7,33,0.00,2,,192
2012-11-23,55,40,26,48,33,25,100,88,70,29.86,29.55,29.40,10,6,0,33,15,44,0.00,8,,265
2012-11-24,28,26,23,27,21,19,100,84,74,30.04,29.97,29.87,10,8,1,21,14,31,0.00,8,,301
2012-11-25,30,26,23,28,25,19,100,93,80,29.90,29.77,29.70,10,8,1,15,6,20,0.00,8,,235
2012-11-26,30,24,15,27,21,14,100,89,69,30.22,30.07,29.86,10,9,0,16,9,22,0.00,6,,267
2012-11-27,32,23,14,32,23,12,100,94,80,30.23,30.14,30.01,10,7,1,15,5,23,0.00,7,,227
2012-11-28,28,22,15,27,21,14,100,88,69,30.17,30.10,29.99,10,9,2,18,9,23,0.00,7,,262
2012-11-29,26,20,15,27,17,12,100,82,68,30.34,30.19,30.05,10,10,4,13,8,,0.00,7,,11
2012-11-30,21,16,12,18,12,9,93,79,68,30.40,30.36,30.32,10,10,10,20,12,23,0.00,7,,75